EKVD

Details ICAO EKVD
Name Kolding Vamdrup
Region Denmark / Faroe Islands
Timezone Europe/Copenhagen (UTC+2.0)
Plans Departing 3
Arriving 6
Stats Elevation 143 ft / 44 m (AMSL)
Location 55.435795° 9.330646°
Runways 2
Magnetic Variation 2.649° E
Sunrise 2018-05-24 02:59:55 UTC / 2018-05-24 04:59:55 Local
Sunset 2018-05-24 19:41:59 UTC / 2018-05-24 21:41:59 Local
Advertisement - Login to hide

Runways

ID Width Length Bearing (true) Bearing (mag) Surface Threshold Offset Overrun Length
01 75 ft / 23 m 3,199 ft / 975 m 17.55° 14.90° Asphalt 0 ft / 0 m 0 ft / 0 m
08 75 ft / 23 m 2,303 ft / 702 m 76.77° 74.12° Grass 0 ft / 0 m 0 ft / 0 m
19 75 ft / 23 m 3,199 ft / 975 m 197.55° 194.90° Asphalt 0 ft / 0 m 0 ft / 0 m
26 75 ft / 23 m 2,303 ft / 702 m 256.77° 254.12° Grass 0 ft / 0 m 0 ft / 0 m

Map

Weather


0- 5 10 15 20 25 30 35+ Temperature / ° C

Clouds and Precipitation
Forecast for 2018-05-24 00:00 UTC. Updated 4 hours ago

Ground ~20,000 ft ~40,000 ft Winds

METAR

EKVD 240250Z AUTO 02002KT //// ///////// 10/08 Q1027

TAF

Not found

Frequencies

Tower 120.50 MHz VAMDRUP AFIS
Approach 127.47 MHz SKRYDSTRUP APP
Warning: Do not use this data for real-world aviation or navigation. No guarantee of current accuracy is given.